Time;durP1;ratioP1;P1;durP2;ratioP2;P2;SDS_P1;SDS_P2;PMS_P1;PMS_P2;Temp;Humidity;BMP_temperature;BMP_pressure;BME280_temperature;BME280_humidity;BME280_pressure;Samples;Min_cycle;Max_cycle;Signal;HPM_P1;HPM_P2
2021/08/30 00:01:48;;;;;;;;;2.00;2.00;;;;;;;;5013806;28;45474;-82
2021/08/30 00:04:13;;;;;;;;;4.75;4.00;;;;;;;;5015754;28;45794;-81
2021/08/30 00:06:40;;;;;;;;;4.00;4.00;;;;;;;;5007901;28;45478;-82
2021/08/30 00:09:06;;;;;;;;;5.50;3.25;;;;;;;;5012293;28;46828;-82
2021/08/30 00:11:31;;;;;;;;;5.75;4.00;;;;;;;;5007754;28;45479;-82
2021/08/30 00:13:56;;;;;;;;;7.33;4.00;;;;;;;;4992680;28;47240;-82
2021/08/30 00:16:22;;;;;;;;;3.33;3.33;;;;;;;;5017481;28;45333;-82
2021/08/30 00:18:47;;;;;;;;;6.50;5.50;;;;;;;;5016904;28;45316;-82
2021/08/30 00:21:12;;;;;;;;;4.67;4.33;;;;;;;;4999225;28;45759;-82
2021/08/30 00:23:37;;;;;;;;;5.67;3.67;;;;;;;;5006060;28;45383;-82
2021/08/30 00:26:04;;;;;;;;;7.00;5.00;;;;;;;;5018321;28;45257;-82
2021/08/30 00:28:31;;;;;;;;;4.50;4.50;;;;;;;;5015837;28;45454;-82
2021/08/30 00:30:56;;;;;;;;;10.00;4.75;;;;;;;;5013505;28;45582;-82
2021/08/30 00:33:21;;;;;;;;;6.67;5.00;;;;;;;;5017439;28;46438;-82
2021/08/30 00:35:46;;;;;;;;;5.33;5.33;;;;;;;;5009383;28;45333;-82
2021/08/30 00:38:11;;;;;;;;;5.33;5.33;;;;;;;;5004951;28;45313;-82
2021/08/30 00:40:37;;;;;;;;;8.50;6.00;;;;;;;;5011945;28;45420;-82
2021/08/30 00:43:03;;;;;;;;;7.50;6.00;;;;;;;;5013159;28;45447;-82
2021/08/30 00:45:28;;;;;;;;;4.00;4.00;;;;;;;;5011246;28;45385;-82
2021/08/30 00:47:55;;;;;;;;;7.75;6.00;;;;;;;;5006472;28;45966;-82
2021/08/30 00:50:20;;;;;;;;;6.50;5.25;;;;;;;;5008812;28;45190;-82
2021/08/30 00:52:45;;;;;;;;;7.67;6.00;;;;;;;;4991591;28;46897;-82
2021/08/30 00:55:12;;;;;;;;;6.33;6.33;;;;;;;;5017796;28;45808;-82
2021/08/30 00:57:37;;;;;;;;;7.75;7.75;;;;;;;;4996732;28;45265;-82
2021/08/30 01:00:03;;;;;;;;;6.50;6.00;;;;;;;;4991934;28;45478;-82
2021/08/30 01:02:28;;;;;;;;;6.25;6.00;;;;;;;;4994255;28;47373;-82
2021/08/30 01:04:54;;;;;;;;;7.67;5.33;;;;;;;;5012190;28;45411;-82
2021/08/30 01:07:25;;;;;;;;;5.75;4.75;;;;;;;;5017288;28;45122;-82
2021/08/30 01:09:57;;;;;;;;;5.75;5.75;;;;;;;;5014985;28;45279;-82
2021/08/30 01:12:30;;;;;;;;;7.75;6.50;;;;;;;;5006020;28;45584;-82
2021/08/30 01:14:58;;;;;;;;;11.25;6.00;;;;;;;;5014781;28;45388;-82
2021/08/30 01:17:24;;;;;;;;;7.00;6.75;;;;;;;;5001994;28;45369;-81
2021/08/30 01:20:09;;;;;;;;;6.75;6.75;;;;;;;;5009602;28;45532;-82
2021/08/30 01:22:36;;;;;;;;;9.75;7.75;;;;;;;;4996595;28;47200;-82
2021/08/30 01:25:01;;;;;;;;;9.75;6.75;;;;;;;;5012112;28;45424;-82
2021/08/30 01:27:28;;;;;;;;;11.50;7.00;;;;;;;;4987713;28;45396;-81
2021/08/30 01:30:07;;;;;;;;;12.00;9.00;;;;;;;;5008610;28;45316;-82
2021/08/30 01:32:32;;;;;;;;;8.50;8.00;;;;;;;;5017669;28;45450;-81
2021/08/30 01:34:59;;;;;;;;;11.33;8.00;;;;;;;;4992059;28;45701;-82
2021/08/30 01:37:25;;;;;;;;;11.00;7.00;;;;;;;;4994815;28;45483;-82
2021/08/30 01:39:51;;;;;;;;;11.25;7.50;;;;;;;;5007947;28;45920;-82
2021/08/30 01:42:17;;;;;;;;;8.50;7.00;;;;;;;;5010214;28;45523;-82
2021/08/30 01:44:42;;;;;;;;;7.75;7.50;;;;;;;;4994803;28;45234;-82
2021/08/30 01:47:07;;;;;;;;;12.25;9.75;;;;;;;;5001094;28;45298;-82
2021/08/30 01:49:33;;;;;;;;;12.00;8.00;;;;;;;;5006155;28;45316;-82
2021/08/30 01:51:58;;;;;;;;;9.75;8.50;;;;;;;;5010580;28;45264;-82
2021/08/30 01:54:24;;;;;;;;;13.75;11.25;;;;;;;;5006919;28;45318;-82
2021/08/30 01:56:53;;;;;;;;;12.50;12.00;;;;;;;;5020039;28;45411;-82
2021/08/30 02:02:07;;;;;;;;;9.00;8.00;;;;;;;;5000707;28;45479;-82
2021/08/30 02:04:33;;;;;;;;;11.50;8.50;;;;;;;;5010349;28;45292;-82
2021/08/30 02:06:58;;;;;;;;;14.75;9.50;;;;;;;;5016844;28;45333;-82
2021/08/30 02:09:23;;;;;;;;;13.00;9.67;;;;;;;;5008335;28;45619;-82
2021/08/30 02:11:49;;;;;;;;;10.00;7.25;;;;;;;;5006764;28;45426;-82
2021/08/30 02:14:14;;;;;;;;;10.50;8.25;;;;;;;;4994619;28;45335;-82
2021/08/30 02:16:39;;;;;;;;;10.75;8.00;;;;;;;;5007202;28;45383;-82
2021/08/30 02:19:13;;;;;;;;;7.25;7.25;;;;;;;;5007775;28;45672;-82
2021/08/30 02:21:38;;;;;;;;;9.50;7.00;;;;;;;;5012703;28;45353;-82
2021/08/30 02:24:09;;;;;;;;;11.75;8.50;;;;;;;;5005922;28;45313;-82
2021/08/30 02:26:52;;;;;;;;;12.00;9.00;;;;;;;;5006775;28;45425;-82
2021/08/30 02:29:20;;;;;;;;;8.00;8.00;;;;;;;;5007305;28;45451;-82
2021/08/30 02:31:47;;;;;;;;;12.25;9.75;;;;;;;;4994567;28;47592;-82
2021/08/30 02:34:13;;;;;;;;;9.50;8.25;;;;;;;;4987302;28;45324;-82
2021/08/30 02:36:38;;;;;;;;;9.50;7.50;;;;;;;;5010506;28;45357;-82
2021/08/30 02:39:05;;;;;;;;;11.25;8.75;;;;;;;;5006880;28;45386;-82
2021/08/30 02:41:31;;;;;;;;;7.75;7.00;;;;;;;;5017728;28;45602;-82
2021/08/30 02:43:57;;;;;;;;;9.75;8.50;;;;;;;;4995570;28;45490;-82
2021/08/30 02:46:22;;;;;;;;;9.50;9.50;;;;;;;;5004170;28;44775;-82
2021/08/30 02:48:47;;;;;;;;;12.33;9.33;;;;;;;;5001552;28;45348;-81
2021/08/30 02:51:13;;;;;;;;;11.25;9.50;;;;;;;;5017657;28;45352;-82
2021/08/30 02:53:38;;;;;;;;;11.00;9.50;;;;;;;;5016280;28;45376;-82
2021/08/30 02:56:04;;;;;;;;;10.75;10.25;;;;;;;;5017964;28;45519;-82
2021/08/30 02:58:29;;;;;;;;;11.50;7.75;;;;;;;;5017548;28;45718;-82
2021/08/30 03:00:55;;;;;;;;;13.50;10.75;;;;;;;;5008829;28;46297;-82
2021/08/30 03:03:21;;;;;;;;;11.75;10.00;;;;;;;;5001260;28;45494;-82
2021/08/30 03:05:47;;;;;;;;;10.00;7.00;;;;;;;;4997797;28;45538;-82
2021/08/30 03:08:12;;;;;;;;;11.00;8.00;;;;;;;;4998107;28;45849;-82
2021/08/30 03:10:38;;;;;;;;;7.50;7.50;;;;;;;;5008042;28;46007;-82
2021/08/30 03:13:04;;;;;;;;;8.50;8.50;;;;;;;;5004178;28;45328;-82
2021/08/30 03:15:30;;;;;;;;;12.75;8.50;;;;;;;;5017315;28;45307;-82
2021/08/30 03:17:56;;;;;;;;;9.50;7.25;;;;;;;;5004788;28;45471;-82
2021/08/30 03:20:23;;;;;;;;;12.50;8.50;;;;;;;;5015486;28;48829;-82
2021/08/30 03:22:49;;;;;;;;;13.00;8.25;;;;;;;;5018437;28;45417;-82
2021/08/30 03:25:16;;;;;;;;;10.50;9.50;;;;;;;;5010423;28;45464;-82
2021/08/30 03:27:46;;;;;;;;;12.50;11.50;;;;;;;;5010440;28;45391;-82
2021/08/30 03:30:13;;;;;;;;;12.50;11.75;;;;;;;;5010905;28;45280;-82
2021/08/30 03:32:39;;;;;;;;;14.00;11.25;;;;;;;;5012313;28;45512;-82
2021/08/30 03:35:04;;;;;;;;;14.25;10.25;;;;;;;;5006931;28;45623;-82
2021/08/30 03:37:30;;;;;;;;;12.50;12.50;;;;;;;;5003528;28;45289;-82
2021/08/30 03:39:56;;;;;;;;;14.00;11.50;;;;;;;;5006729;28;45536;-82
2021/08/30 03:42:23;;;;;;;;;15.25;10.25;;;;;;;;5015750;28;44753;-82
2021/08/30 03:44:49;;;;;;;;;11.25;8.25;;;;;;;;5013979;28;45288;-82
2021/08/30 03:47:14;;;;;;;;;13.50;10.75;;;;;;;;5015639;28;45391;-82
2021/08/30 03:49:41;;;;;;;;;13.25;11.75;;;;;;;;5010859;28;45412;-82
2021/08/30 03:52:08;;;;;;;;;14.75;11.25;;;;;;;;5021262;28;45474;-82
2021/08/30 03:54:33;;;;;;;;;13.25;12.25;;;;;;;;5016588;28;45614;-82
2021/08/30 03:56:59;;;;;;;;;13.25;12.50;;;;;;;;5009114;28;45468;-82
2021/08/30 03:59:27;;;;;;;;;11.50;11.00;;;;;;;;5008132;28;46717;-82
2021/08/30 04:01:53;;;;;;;;;11.25;10.25;;;;;;;;5007532;28;45213;-82
2021/08/30 04:04:21;;;;;;;;;17.00;13.25;;;;;;;;5011353;28;45365;-82
2021/08/30 04:06:47;;;;;;;;;13.50;13.50;;;;;;;;5014248;28;45354;-82
2021/08/30 04:09:19;;;;;;;;;15.00;13.75;;;;;;;;5009746;28;45585;-82
2021/08/30 04:11:45;;;;;;;;;13.25;13.00;;;;;;;;5007266;28;45524;-82
2021/08/30 04:14:11;;;;;;;;;15.75;13.50;;;;;;;;5006665;28;45405;-82
2021/08/30 04:16:37;;;;;;;;;15.50;13.00;;;;;;;;5020592;28;45476;-82
2021/08/30 04:19:02;;;;;;;;;15.50;14.00;;;;;;;;5015977;28;46744;-82
2021/08/30 04:21:27;;;;;;;;;20.75;14.00;;;;;;;;5008560;28;46173;-82
2021/08/30 04:23:52;;;;;;;;;15.67;12.67;;;;;;;;4999234;28;45403;-82
2021/08/30 04:26:17;;;;;;;;;16.00;12.67;;;;;;;;5010433;28;45254;-82
2021/08/30 04:28:43;;;;;;;;;15.33;14.67;;;;;;;;5006267;28;46331;-82
2021/08/30 04:31:08;;;;;;;;;17.00;14.50;;;;;;;;4995467;28;45892;-82
2021/08/30 04:33:33;;;;;;;;;16.67;13.67;;;;;;;;5007874;28;46116;-82
2021/08/30 04:35:58;;;;;;;;;17.33;13.33;;;;;;;;5018220;28;45423;-82
2021/08/30 04:38:24;;;;;;;;;16.00;15.25;;;;;;;;5006531;28;45467;-82
2021/08/30 04:40:49;;;;;;;;;19.67;15.00;;;;;;;;5012699;28;45530;-82
2021/08/30 04:43:14;;;;;;;;;15.33;13.67;;;;;;;;4995075;28;45863;-82
2021/08/30 04:45:39;;;;;;;;;21.75;15.75;;;;;;;;5012558;28;45487;-82
2021/08/30 04:48:05;;;;;;;;;16.50;15.00;;;;;;;;5001943;28;46178;-82
2021/08/30 04:50:31;;;;;;;;;22.00;17.75;;;;;;;;5010925;28;45308;-82
2021/08/30 04:52:56;;;;;;;;;18.25;15.50;;;;;;;;5011919;28;45506;-82
2021/08/30 04:55:21;;;;;;;;;17.75;17.25;;;;;;;;5014487;28;45837;-82
2021/08/30 04:57:47;;;;;;;;;18.75;17.50;;;;;;;;5003395;28;46860;-82
2021/08/30 05:00:12;;;;;;;;;19.50;15.75;;;;;;;;5014082;28;45533;-82
2021/08/30 05:02:38;;;;;;;;;19.00;14.00;;;;;;;;5001419;28;45402;-82
2021/08/30 05:05:03;;;;;;;;;22.00;15.75;;;;;;;;5015666;28;45363;-82
2021/08/30 05:07:29;;;;;;;;;18.50;17.25;;;;;;;;5012728;28;46227;-82
2021/08/30 05:09:54;;;;;;;;;19.00;15.75;;;;;;;;4991086;28;45792;-82
2021/08/30 05:12:25;;;;;;;;;25.33;20.33;;;;;;;;5019847;28;45288;-82
2021/08/30 05:14:50;;;;;;;;;26.00;21.00;;;;;;;;5006431;28;45329;-82
2021/08/30 05:17:15;;;;;;;;;22.00;19.00;;;;;;;;5010929;28;46559;-82
2021/08/30 05:19:40;;;;;;;;;19.33;18.33;;;;;;;;5012069;28;45478;-82
2021/08/30 05:22:05;;;;;;;;;23.67;21.67;;;;;;;;5016115;28;45575;-82
2021/08/30 05:24:31;;;;;;;;;27.00;22.67;;;;;;;;5007428;28;45353;-82
2021/08/30 05:26:56;;;;;;;;;24.67;18.33;;;;;;;;5012595;28;45309;-82
2021/08/30 05:29:21;;;;;;;;;21.67;20.67;;;;;;;;5004338;28;45301;-82
2021/08/30 05:31:46;;;;;;;;;24.33;21.33;;;;;;;;5001249;28;45320;-82
2021/08/30 05:34:11;;;;;;;;;24.50;21.00;;;;;;;;5012427;28;45555;-82
2021/08/30 05:36:37;;;;;;;;;25.33;21.00;;;;;;;;5011700;28;45515;-82
2021/08/30 05:39:02;;;;;;;;;25.67;23.67;;;;;;;;5017413;28;45488;-82
2021/08/30 05:41:27;;;;;;;;;26.50;20.50;;;;;;;;4999368;28;45329;-82
2021/08/30 05:43:52;;;;;;;;;29.67;23.67;;;;;;;;4990259;28;45385;-82
2021/08/30 05:46:18;;;;;;;;;31.75;22.75;;;;;;;;5010739;28;45235;-82
2021/08/30 05:48:48;;;;;;;;;27.00;23.00;;;;;;;;5003123;28;45303;-82
2021/08/30 05:51:13;;;;;;;;;30.50;24.50;;;;;;;;5018031;28;45444;-82
2021/08/30 05:53:39;;;;;;;;;25.67;24.33;;;;;;;;5020614;28;45470;-82
2021/08/30 05:56:05;;;;;;;;;30.75;25.25;;;;;;;;5018920;28;46112;-82
2021/08/30 05:58:30;;;;;;;;;28.50;25.00;;;;;;;;5019255;28;45448;-81
2021/08/30 06:00:55;;;;;;;;;27.67;22.00;;;;;;;;5004000;28;45398;-82
2021/08/30 06:03:20;;;;;;;;;36.25;27.00;;;;;;;;5021075;28;45468;-82
2021/08/30 06:05:46;;;;;;;;;45.67;34.00;;;;;;;;4990108;28;46407;-82
2021/08/30 06:08:11;;;;;;;;;35.00;30.67;;;;;;;;5004784;28;45330;-83
2021/08/30 06:10:36;;;;;;;;;31.00;26.00;;;;;;;;5012263;28;45392;-82
2021/08/30 06:13:01;;;;;;;;;32.33;27.67;;;;;;;;5019986;28;45387;-82
2021/08/30 06:15:27;;;;;;;;;41.67;31.67;;;;;;;;4996544;28;47267;-83
2021/08/30 06:17:52;;;;;;;;;34.00;32.50;;;;;;;;5014175;28;45365;-82
2021/08/30 06:20:17;;;;;;;;;29.75;26.75;;;;;;;;5013718;28;45678;-82
2021/08/30 06:22:42;;;;;;;;;29.75;21.50;;;;;;;;4985346;28;45316;-82
2021/08/30 06:25:08;;;;;;;;;31.25;24.00;;;;;;;;4991119;28;47260;-83
2021/08/30 06:27:33;;;;;;;;;35.25;28.25;;;;;;;;5006621;28;45304;-82
2021/08/30 06:29:58;;;;;;;;;33.25;28.50;;;;;;;;5010632;28;45483;-83
2021/08/30 06:32:24;;;;;;;;;32.00;25.00;;;;;;;;5008762;28;45661;-82
2021/08/30 06:34:49;;;;;;;;;32.25;26.25;;;;;;;;5006933;28;46478;-83
2021/08/30 06:37:14;;;;;;;;;32.67;23.33;;;;;;;;5013893;28;45372;-82
2021/08/30 06:39:40;;;;;;;;;23.75;23.50;;;;;;;;4994495;28;45490;-82
2021/08/30 06:42:05;;;;;;;;;34.00;29.67;;;;;;;;5008712;28;45451;-82
2021/08/30 06:44:30;;;;;;;;;35.67;29.67;;;;;;;;4991498;28;46846;-82
2021/08/30 06:46:55;;;;;;;;;29.75;26.25;;;;;;;;5004878;28;45553;-82
2021/08/30 06:49:21;;;;;;;;;30.67;25.00;;;;;;;;5003369;28;45365;-82
2021/08/30 06:51:46;;;;;;;;;32.00;31.33;;;;;;;;5013758;28;45560;-83
2021/08/30 06:54:11;;;;;;;;;28.67;27.33;;;;;;;;5010855;28;46243;-83
2021/08/30 06:56:37;;;;;;;;;37.25;30.25;;;;;;;;5013898;28;45564;-83
2021/08/30 06:59:03;;;;;;;;;30.75;26.00;;;;;;;;5015558;28;45508;-82
2021/08/30 07:01:28;;;;;;;;;27.50;25.25;;;;;;;;5009435;28;45424;-85
2021/08/30 07:03:53;;;;;;;;;26.00;20.25;;;;;;;;5002102;28;48412;-83
2021/08/30 07:06:18;;;;;;;;;31.00;26.00;;;;;;;;5011675;28;45491;-82
2021/08/30 07:08:44;;;;;;;;;39.00;28.33;;;;;;;;4993921;28;45473;-82
2021/08/30 07:11:09;;;;;;;;;26.75;23.25;;;;;;;;4997804;28;45503;-82
2021/08/30 07:13:34;;;;;;;;;30.33;28.33;;;;;;;;4992237;28;48130;-82
2021/08/30 07:15:59;;;;;;;;;27.33;25.00;;;;;;;;5012011;28;46433;-82
2021/08/30 07:18:24;;;;;;;;;36.00;28.00;;;;;;;;5014126;28;45379;-82
2021/08/30 07:20:50;;;;;;;;;37.67;30.67;;;;;;;;5012256;28;45458;-82
2021/08/30 07:23:16;;;;;;;;;37.00;30.50;;;;;;;;5013198;28;45414;-82
2021/08/30 07:25:41;;;;;;;;;28.75;26.75;;;;;;;;5010852;28;46920;-83
2021/08/30 07:28:07;;;;;;;;;28.67;24.00;;;;;;;;4997584;28;45455;-82
2021/08/30 07:30:33;;;;;;;;;31.25;27.25;;;;;;;;4992275;28;45315;-82
2021/08/30 07:32:58;;;;;;;;;31.00;25.33;;;;;;;;5013012;28;45497;-82
2021/08/30 07:35:24;;;;;;;;;28.75;27.00;;;;;;;;5008714;28;45246;-83
2021/08/30 07:37:49;;;;;;;;;23.75;21.75;;;;;;;;4998988;28;45316;-82
2021/08/30 07:40:14;;;;;;;;;32.25;29.50;;;;;;;;5012942;28;45364;-83
2021/08/30 07:42:39;;;;;;;;;30.25;24.75;;;;;;;;5009920;28;45958;-82
2021/08/30 07:45:05;;;;;;;;;24.00;22.00;;;;;;;;5006701;28;45441;-82
2021/08/30 07:47:30;;;;;;;;;27.25;22.75;;;;;;;;5010052;28;45419;-83
2021/08/30 07:49:56;;;;;;;;;30.00;23.25;;;;;;;;5008635;28;45428;-82
2021/08/30 07:52:21;;;;;;;;;29.25;20.50;;;;;;;;5009387;28;45656;-82
2021/08/30 07:54:47;;;;;;;;;22.00;21.00;;;;;;;;5008625;28;45486;-83
2021/08/30 07:57:13;;;;;;;;;30.75;22.25;;;;;;;;5008382;28;45535;-82
2021/08/30 07:59:38;;;;;;;;;23.00;22.00;;;;;;;;5010008;28;45787;-82
2021/08/30 08:02:03;;;;;;;;;24.33;21.33;;;;;;;;5014865;28;45967;-82
2021/08/30 08:04:29;;;;;;;;;26.00;20.00;;;;;;;;4991673;28;45540;-82
2021/08/30 08:06:54;;;;;;;;;24.00;19.67;;;;;;;;5017301;28;45555;-82
2021/08/30 08:09:20;;;;;;;;;23.50;21.25;;;;;;;;5014563;28;45507;-82
2021/08/30 08:11:45;;;;;;;;;20.75;16.75;;;;;;;;5015072;28;45514;-82
2021/08/30 08:14:11;;;;;;;;;24.75;16.75;;;;;;;;4993580;28;45488;-82
2021/08/30 08:16:36;;;;;;;;;21.00;17.00;;;;;;;;5013386;28;45742;-82
2021/08/30 08:19:01;;;;;;;;;20.00;18.00;;;;;;;;5015579;28;46618;-82
2021/08/30 08:21:26;;;;;;;;;21.00;18.00;;;;;;;;4996495;28;47998;-82
2021/08/30 08:23:52;;;;;;;;;16.33;16.00;;;;;;;;5014490;28;45374;-82
2021/08/30 08:26:17;;;;;;;;;24.75;20.50;;;;;;;;4992254;28;45385;-83
2021/08/30 08:28:42;;;;;;;;;19.50;18.25;;;;;;;;4995007;28;45783;-82
2021/08/30 08:31:07;;;;;;;;;21.25;18.25;;;;;;;;4996510;28;47102;-83
2021/08/30 08:33:33;;;;;;;;;19.00;18.67;;;;;;;;4997285;28;45316;-83
2021/08/30 08:35:58;;;;;;;;;17.00;15.67;;;;;;;;5013383;28;45552;-83
2021/08/30 08:38:23;;;;;;;;;20.67;16.67;;;;;;;;5013850;28;45503;-83
2021/08/30 08:40:50;;;;;;;;;18.00;17.00;;;;;;;;5015189;28;46445;-83
2021/08/30 08:43:16;;;;;;;;;22.75;21.75;;;;;;;;5013214;28;45280;-83
2021/08/30 08:45:42;;;;;;;;;19.75;17.25;;;;;;;;4999433;28;45600;-83
2021/08/30 08:48:07;;;;;;;;;22.75;16.00;;;;;;;;4997870;28;45554;-82
2021/08/30 08:50:32;;;;;;;;;18.50;17.25;;;;;;;;5016767;28;46174;-83
2021/08/30 08:53:03;;;;;;;;;23.00;18.67;;;;;;;;5001183;28;45685;-83
2021/08/30 08:55:28;;;;;;;;;19.75;16.75;;;;;;;;4996578;28;45454;-82
2021/08/30 08:57:53;;;;;;;;;16.67;16.00;;;;;;;;5015644;28;45448;-83
2021/08/30 09:00:19;;;;;;;;;20.00;16.67;;;;;;;;5011233;28;45373;-83
2021/08/30 09:02:48;;;;;;;;;19.50;15.00;;;;;;;;5017766;28;45398;-83
2021/08/30 09:05:24;;;;;;;;;22.75;19.00;;;;;;;;5023220;28;45482;-82
2021/08/30 09:07:49;;;;;;;;;20.50;16.00;;;;;;;;5025319;28;44842;-83
2021/08/30 09:10:19;;;;;;;;;20.25;16.00;;;;;;;;5015618;28;45926;-84
2021/08/30 09:12:47;;;;;;;;;19.00;14.00;;;;;;;;4996355;28;45423;-85
2021/08/30 09:15:17;;;;;;;;;16.00;14.00;;;;;;;;5015306;28;46896;-83
2021/08/30 09:17:48;;;;;;;;;19.00;15.00;;;;;;;;5015824;28;45348;-83
2021/08/30 09:20:16;;;;;;;;;14.50;14.00;;;;;;;;5012193;28;46500;-83
2021/08/30 09:22:41;;;;;;;;;15.25;14.00;;;;;;;;5013493;28;45278;-83
2021/08/30 09:25:08;;;;;;;;;24.00;17.00;;;;;;;;5010798;28;45297;-83
2021/08/30 09:27:34;;;;;;;;;19.00;16.00;;;;;;;;5012295;28;45499;-83
2021/08/30 09:30:01;;;;;;;;;20.25;16.25;;;;;;;;5013780;28;45476;-83
2021/08/30 09:32:30;;;;;;;;;23.00;14.75;;;;;;;;4990436;28;46034;-82
2021/08/30 09:34:58;;;;;;;;;17.00;12.75;;;;;;;;5012207;28;45559;-83
2021/08/30 09:37:24;;;;;;;;;17.75;16.25;;;;;;;;5006429;28;45633;-83
2021/08/30 09:39:51;;;;;;;;;14.75;13.75;;;;;;;;5012189;28;45496;-82
2021/08/30 09:42:16;;;;;;;;;20.25;18.00;;;;;;;;4991750;28;45749;-82
2021/08/30 09:44:42;;;;;;;;;16.25;15.00;;;;;;;;5011158;28;45967;-82
2021/08/30 09:47:11;;;;;;;;;21.00;17.25;;;;;;;;5009257;28;45502;-82
2021/08/30 09:49:37;;;;;;;;;14.50;13.50;;;;;;;;5016277;28;45655;-84
2021/08/30 09:52:03;;;;;;;;;14.25;13.00;;;;;;;;5020161;28;45225;-86
2021/08/30 09:54:28;;;;;;;;;15.00;14.50;;;;;;;;5014060;28;45364;-83
2021/08/30 09:56:53;;;;;;;;;9.50;7.50;;;;;;;;5011815;28;45358;-83
2021/08/30 09:59:19;;;;;;;;;14.25;14.25;;;;;;;;4996007;28;48353;-83
2021/08/30 10:01:44;;;;;;;;;20.50;16.50;;;;;;;;5017125;28;45391;-83
2021/08/30 10:04:10;;;;;;;;;17.50;14.00;;;;;;;;5013659;28;45379;-83
2021/08/30 10:06:37;;;;;;;;;15.00;14.50;;;;;;;;5013442;28;45619;-83
2021/08/30 10:09:04;;;;;;;;;15.50;13.00;;;;;;;;5013690;28;46579;-83
2021/08/30 10:11:29;;;;;;;;;14.50;13.50;;;;;;;;4996806;28;45648;-83
2021/08/30 10:13:55;;;;;;;;;14.75;12.00;;;;;;;;5014575;28;45476;-83
2021/08/30 10:16:21;;;;;;;;;17.75;16.75;;;;;;;;5008656;28;45831;-83
2021/08/30 10:18:50;;;;;;;;;15.50;11.50;;;;;;;;5012122;28;45479;-83
2021/08/30 10:21:16;;;;;;;;;20.75;13.25;;;;;;;;5014023;28;45460;-83
2021/08/30 10:23:41;;;;;;;;;12.25;11.25;;;;;;;;5010157;28;45285;-84
2021/08/30 10:26:10;;;;;;;;;12.50;11.75;;;;;;;;5017116;28;45415;-84
2021/08/30 10:28:56;;;;;;;;;18.50;14.75;;;;;;;;5008599;28;45594;-84
2021/08/30 10:31:24;;;;;;;;;13.50;12.00;;;;;;;;5011718;28;45578;-87
2021/08/30 10:33:51;;;;;;;;;13.50;13.50;;;;;;;;4993882;28;45501;-83
2021/08/30 10:36:17;;;;;;;;;10.25;9.75;;;;;;;;5013358;28;45625;-83
2021/08/30 10:38:43;;;;;;;;;16.00;13.00;;;;;;;;5013187;28;45521;-82
2021/08/30 10:41:15;;;;;;;;;12.00;11.75;;;;;;;;5010120;28;45278;-83
2021/08/30 10:43:44;;;;;;;;;14.00;14.00;;;;;;;;4993194;28;45511;-82
2021/08/30 10:46:16;;;;;;;;;16.25;13.50;;;;;;;;5011921;28;45593;-82
2021/08/30 10:48:47;;;;;;;;;17.50;15.50;;;;;;;;5015593;28;45824;-81
2021/08/30 10:51:17;;;;;;;;;23.00;19.75;;;;;;;;5014007;28;45484;-82
2021/08/30 10:53:53;;;;;;;;;13.00;13.00;;;;;;;;5012115;28;45599;-82
2021/08/30 10:56:22;;;;;;;;;14.50;12.50;;;;;;;;5016380;28;45433;-83
2021/08/30 10:58:49;;;;;;;;;15.75;13.25;;;;;;;;4993151;28;47119;-82
2021/08/30 11:01:14;;;;;;;;;15.00;12.25;;;;;;;;5008161;28;45577;-83
2021/08/30 11:03:40;;;;;;;;;17.00;14.00;;;;;;;;5013078;28;45432;-82
2021/08/30 11:06:12;;;;;;;;;15.25;13.00;;;;;;;;5016011;28;45312;-83
2021/08/30 11:08:41;;;;;;;;;15.00;13.25;;;;;;;;5008525;28;45518;-82
2021/08/30 11:11:17;;;;;;;;;15.50;13.75;;;;;;;;5010549;28;45436;-82
2021/08/30 11:13:55;;;;;;;;;11.25;11.00;;;;;;;;5012431;28;45549;-82
2021/08/30 11:16:21;;;;;;;;;11.75;11.75;;;;;;;;5012951;28;45517;-83
2021/08/30 11:18:53;;;;;;;;;13.25;12.25;;;;;;;;4997023;28;47020;-82
2021/08/30 11:21:31;;;;;;;;;12.75;11.25;;;;;;;;5008190;28;45491;-82
2021/08/30 11:23:56;;;;;;;;;14.25;12.00;;;;;;;;5016093;28;45472;-82
2021/08/30 11:26:21;;;;;;;;;13.50;13.50;;;;;;;;5014433;28;45368;-82
2021/08/30 11:29:05;;;;;;;;;14.67;13.00;;;;;;;;5015788;28;45478;-81
2021/08/30 11:31:32;;;;;;;;;17.25;14.50;;;;;;;;4993234;28;46087;-82
2021/08/30 11:33:58;;;;;;;;;17.25;11.50;;;;;;;;4993615;28;45529;-82
2021/08/30 11:36:23;;;;;;;;;15.75;14.00;;;;;;;;4995514;28;45515;-82
2021/08/30 11:38:55;;;;;;;;;15.25;13.50;;;;;;;;5015252;28;46471;-84
2021/08/30 11:41:21;;;;;;;;;12.50;11.50;;;;;;;;5012338;28;45543;-84
2021/08/30 11:43:47;;;;;;;;;14.00;13.00;;;;;;;;5012576;28;45483;-84
2021/08/30 11:46:12;;;;;;;;;13.00;12.50;;;;;;;;4992378;28;45590;-84
2021/08/30 11:48:37;;;;;;;;;13.00;13.00;;;;;;;;4998926;28;47442;-84
2021/08/30 11:51:04;;;;;;;;;14.25;13.25;;;;;;;;4996336;28;45991;-83
2021/08/30 11:53:29;;;;;;;;;14.75;12.75;;;;;;;;4994906;28;45529;-84
2021/08/30 11:55:54;;;;;;;;;11.25;10.75;;;;;;;;5010821;28;45511;-84
2021/08/30 11:58:28;;;;;;;;;22.67;15.67;;;;;;;;4996748;28;47829;-84
2021/08/30 12:01:01;;;;;;;;;16.50;12.75;;;;;;;;5014483;28;45384;-84
2021/08/30 12:03:26;;;;;;;;;13.50;13.00;;;;;;;;5013858;28;45688;-84
2021/08/30 12:05:53;;;;;;;;;17.75;15.50;;;;;;;;5016971;28;45362;-84
2021/08/30 12:08:20;;;;;;;;;17.50;14.25;;;;;;;;5010249;28;47117;-84
2021/08/30 12:10:45;;;;;;;;;16.00;14.75;;;;;;;;5017937;28;45858;-84
2021/08/30 12:13:33;;;;;;;;;16.25;13.75;;;;;;;;5019048;28;45522;-85
2021/08/30 12:15:58;;;;;;;;;16.00;14.50;;;;;;;;5019943;28;45702;-84
2021/08/30 12:18:24;;;;;;;;;19.00;16.00;;;;;;;;5014888;28;46435;-87
2021/08/30 12:20:55;;;;;;;;;17.50;17.50;;;;;;;;5007801;28;45359;-82
2021/08/30 12:23:21;;;;;;;;;16.50;14.25;;;;;;;;5010278;28;46579;-82
2021/08/30 12:25:48;;;;;;;;;16.75;13.75;;;;;;;;5013018;28;45574;-81
2021/08/30 12:28:14;;;;;;;;;20.25;16.50;;;;;;;;5014130;28;45440;-82
2021/08/30 12:30:42;;;;;;;;;14.50;14.25;;;;;;;;5017109;28;46283;-82
2021/08/30 12:33:09;;;;;;;;;14.00;14.00;;;;;;;;5010527;28;45751;-82
2021/08/30 12:35:36;;;;;;;;;17.25;16.25;;;;;;;;5014854;28;45327;-82
2021/08/30 12:38:12;;;;;;;;;19.75;16.25;;;;;;;;5011164;28;45626;-82
2021/08/30 12:40:40;;;;;;;;;16.75;14.25;;;;;;;;5016045;28;45446;-82
2021/08/30 12:43:05;;;;;;;;;13.50;13.25;;;;;;;;5010568;28;45400;-82
2021/08/30 12:45:30;;;;;;;;;14.50;13.50;;;;;;;;5011854;28;45625;-82
2021/08/30 12:47:55;;;;;;;;;16.75;15.50;;;;;;;;5009988;28;45590;-82
2021/08/30 12:50:21;;;;;;;;;16.00;14.50;;;;;;;;5006786;28;45605;-81
2021/08/30 12:52:46;;;;;;;;;17.00;14.75;;;;;;;;5009954;28;45237;-82
2021/08/30 12:55:12;;;;;;;;;16.00;13.25;;;;;;;;5013618;28;45506;-82
2021/08/30 12:57:37;;;;;;;;;18.25;16.50;;;;;;;;5016597;28;48432;-81
2021/08/30 13:00:08;;;;;;;;;18.75;16.00;;;;;;;;5011737;28;45339;-81
2021/08/30 13:02:33;;;;;;;;;15.25;13.75;;;;;;;;5033574;28;45498;-82
2021/08/30 13:04:58;;;;;;;;;17.50;15.00;;;;;;;;5016993;28;46401;-83
2021/08/30 13:07:23;;;;;;;;;16.67;13.33;;;;;;;;5016644;28;45513;-82
2021/08/30 13:09:49;;;;;;;;;16.00;16.00;;;;;;;;4974857;28;46009;-82
2021/08/30 13:12:14;;;;;;;;;17.00;16.00;;;;;;;;4991656;28;45412;-82
2021/08/30 13:14:39;;;;;;;;;17.00;13.00;;;;;;;;4987678;28;45436;-82
2021/08/30 13:17:04;;;;;;;;;15.33;14.33;;;;;;;;4995625;28;45420;-82
2021/08/30 13:19:29;;;;;;;;;18.00;16.33;;;;;;;;4991573;28;45560;-82
2021/08/30 13:21:55;;;;;;;;;15.50;15.50;;;;;;;;4993620;28;45459;-82
2021/08/30 13:24:20;;;;;;;;;21.33;16.00;;;;;;;;4985018;28;45313;-82
2021/08/30 13:26:45;;;;;;;;;16.00;14.00;;;;;;;;4994133;28;45542;-81
2021/08/30 13:29:11;;;;;;;;;17.33;16.67;;;;;;;;4987632;28;45460;-83
2021/08/30 13:31:36;;;;;;;;;20.75;18.25;;;;;;;;4979691;28;45291;-82
2021/08/30 13:34:01;;;;;;;;;14.67;14.67;;;;;;;;4984081;28;45235;-81
2021/08/30 13:36:26;;;;;;;;;14.25;14.25;;;;;;;;4991902;28;46658;-81
2021/08/30 13:38:52;;;;;;;;;17.33;14.00;;;;;;;;4983662;28;45212;-81
2021/08/30 13:41:17;;;;;;;;;16.00;15.33;;;;;;;;4989143;28;45328;-81
2021/08/30 13:43:42;;;;;;;;;16.75;14.25;;;;;;;;4993292;28;45327;-81
2021/08/30 13:46:07;;;;;;;;;18.00;15.00;;;;;;;;4972614;28;47213;-81
2021/08/30 13:48:35;;;;;;;;;13.00;13.00;;;;;;;;4994323;28;45440;-82
2021/08/30 13:51:00;;;;;;;;;15.00;13.00;;;;;;;;4991511;28;45446;-82
2021/08/30 13:53:25;;;;;;;;;14.75;14.00;;;;;;;;4985352;28;45415;-81
2021/08/30 13:55:50;;;;;;;;;12.33;12.00;;;;;;;;4993557;28;45721;-81
2021/08/30 13:58:16;;;;;;;;;16.25;13.25;;;;;;;;4993855;28;45373;-81
2021/08/30 14:00:41;;;;;;;;;15.50;14.00;;;;;;;;4994042;28;45246;-81
2021/08/30 14:03:07;;;;;;;;;14.00;11.33;;;;;;;;4995984;28;45555;-81
2021/08/30 14:05:35;;;;;;;;;18.25;14.50;;;;;;;;4983706;28;47693;-81
2021/08/30 14:08:02;;;;;;;;;50.25;40.00;;;;;;;;4992704;28;45304;-81
2021/08/30 14:10:27;;;;;;;;;14.25;13.50;;;;;;;;5008355;28;45458;-81
2021/08/30 14:12:52;;;;;;;;;17.50;14.25;;;;;;;;5015438;28;45225;-81
2021/08/30 14:15:20;;;;;;;;;20.00;16.50;;;;;;;;5014471;28;46113;-81
2021/08/30 14:17:45;;;;;;;;;17.00;15.50;;;;;;;;4992687;28;45430;-81
2021/08/30 14:20:11;;;;;;;;;18.00;16.00;;;;;;;;4990586;28;45458;-81